메인 페이지
METAR-TAF:

METAR-TAF

공항 :

몸바사, 케냐

위도: 04-02S, 경도: 039-37E, 고도: 57m

현재 날씨관측

예보는 43분 전, 08:30시(UTC)에 발표되었습니다.
남남서13kt
온도 28°C
습도 62%
기압 1018 hPa
시정 10km 이상
고도 2400ft 상공 구름 조금
고도 8000ft 상공 구름 많음

METAR: HKMO 130830Z 20013KT 9999 FEW024 BKN080 28/20 Q1018 NOSIG

시각: 12:13 (09:13 UTC)

예보

예보는 4 시간 13분 전, 05:00시(UTC)에 발표되었습니다.
예보 대상 시간: 13일 06시부터 14일 12시까지 (UTC)
남남서5kt
시정 10km 이상
고도 2300ft 상공 구름 조금
고도 8000ft 상공 구름 보통
일시적
13일 10시부터 13일 11시까지 (UTC)
15kt
고도 2500ft 상공 구름 보통
고도 8000ft 상공 구름 많음
약한소나기
전환 중
13일 15시부터 13일 18시까지 (UTC)
남서5kt
고도 2200ft 상공 구름 조금
고도 8000ft 상공 구름 보통
전환 중
14일 00시부터 14일 03시까지 (UTC)
고도 2000ft 상공 구름 조금
고도 8000ft 상공 구름 보통

TAF: HKMO 130500Z 1306/1412 20005KT 9999 FEW023 SCT080 TEMPO 1310/1311 17015KT -SHRA SCT025 BKN080 BECMG 1315/1318 23005KT NSW FEW022 SCT080 BECMG 1400/1403 FEW020 SCT080

4,000개 이상의 공항 관측 자료 및 예보 (METAR 및 TAF 보고).

지도상에서 검색 가능한 기상관측소가 노란 점과 빨간 점으로 표시되어 있습니다.

기상관측소 명을 보려면 표시 위로 마우스를 이동하세요.

날씨 관측과 예보를 보려면 클릭하세요.

지도 변경 : 확대하려면 엑스 표시가 있는 녹색 버튼, 축소하려면 빼기 표시가 있는 녹색 버튼, 다음 페이지의 지도를 보려면 녹색 화살표를 클릭하세요.


METAR-TAF: